createdAt,value
2023-01-03T00:00:26.109Z,9.70
2023-01-03T00:01:28.490Z,9.70
2023-01-03T00:02:30.475Z,9.70
2023-01-03T00:03:32.302Z,9.70
2023-01-03T00:04:33.877Z,9.70
2023-01-03T00:05:36.408Z,9.70
2023-01-03T00:06:42.525Z,9.70
2023-01-03T00:07:44.011Z,9.70
2023-01-03T00:08:45.720Z,9.60
2023-01-03T00:09:47.119Z,9.60
2023-01-03T00:10:48.544Z,9.60
2023-01-03T00:12:10.300Z,9.70
2023-01-03T00:13:12.222Z,9.70
2023-01-03T00:14:16.611Z,9.70
2023-01-03T00:15:18.437Z,9.70
2023-01-03T00:16:20.700Z,9.70
2023-01-03T00:17:22.324Z,9.60
2023-01-03T00:18:23.773Z,9.60
2023-01-03T00:19:27.349Z,9.60
2023-01-03T00:20:28.865Z,9.60
2023-01-03T00:21:30.365Z,9.70
2023-01-03T00:22:32.664Z,9.60
2023-01-03T00:23:34.070Z,9.70
2023-01-03T00:24:36.231Z,9.60
2023-01-03T00:25:37.707Z,9.60
2023-01-03T00:26:40.955Z,9.60
2023-01-03T00:27:42.353Z,9.60
2023-01-03T00:28:43.843Z,9.60
2023-01-03T00:29:45.301Z,9.60
2023-01-03T00:30:46.777Z,9.50
2023-01-03T00:31:48.505Z,9.50
2023-01-03T00:32:49.923Z,9.50
2023-01-03T00:33:51.907Z,9.50
2023-01-03T00:34:53.413Z,9.50
2023-01-03T00:35:54.865Z,9.50
2023-01-03T00:36:56.983Z,9.50
2023-01-03T00:37:58.561Z,9.50
2023-01-03T00:39:00.559Z,9.50
2023-01-03T00:40:02.521Z,9.50
2023-01-03T00:41:10.965Z,9.50
2023-01-03T00:42:12.613Z,9.50
2023-01-03T00:43:29.287Z,9.50
2023-01-03T00:44:31.270Z,9.40
2023-01-03T00:45:35.482Z,9.50
2023-01-03T00:46:37.356Z,9.50
2023-01-03T00:47:38.844Z,9.50
2023-01-03T00:48:40.405Z,9.60
2023-01-03T00:49:42.040Z,9.50
2023-01-03T00:50:43.619Z,9.50
2023-01-03T00:51:45.382Z,9.40
2023-01-03T00:52:46.799Z,9.40
2023-01-03T00:53:52.111Z,9.40
2023-01-03T00:54:53.658Z,9.40
2023-01-03T00:55:56.097Z,9.40
2023-01-03T00:56:57.483Z,9.40
2023-01-03T00:57:59.025Z,9.40
2023-01-03T00:59:00.479Z,9.40
2023-01-03T01:00:01.900Z,9.40
2023-01-03T01:01:08.638Z,9.40
2023-01-03T01:02:10.236Z,9.40
2023-01-03T01:03:11.975Z,9.40
2023-01-03T01:04:16.834Z,9.40
2023-01-03T01:05:18.581Z,9.40
2023-01-03T01:06:23.383Z,9.30
2023-01-03T01:07:25.004Z,9.30
2023-01-03T01:08:26.431Z,9.30
2023-01-03T01:09:30.602Z,9.30
2023-01-03T01:10:32.032Z,9.30
2023-01-03T01:11:34.090Z,9.30
2023-01-03T01:12:35.517Z,9.30
2023-01-03T01:13:37.853Z,9.30
2023-01-03T01:14:39.595Z,9.30
2023-01-03T01:15:41.043Z,9.30
2023-01-03T01:16:42.473Z,9.30
2023-01-03T01:17:44.358Z,9.20
2023-01-03T01:18:47.728Z,9.20
2023-01-03T01:19:49.153Z,9.20
2023-01-03T01:20:50.534Z,9.20
2023-01-03T01:21:52.360Z,9.20
2023-01-03T01:22:53.944Z,9.20
2023-01-03T01:23:55.582Z,9.20
2023-01-03T01:24:56.968Z,9.20
2023-01-03T01:26:05.344Z,9.20
2023-01-03T01:27:07.131Z,9.20
2023-01-03T01:28:08.565Z,9.20
2023-01-03T01:29:12.388Z,9.20
2023-01-03T01:30:14.663Z,9.30
2023-01-03T01:31:27.001Z,9.20
2023-01-03T01:32:28.507Z,9.20
2023-01-03T01:33:32.971Z,9.20
2023-01-03T01:34:35.174Z,9.30
2023-01-03T01:35:36.643Z,9.20
2023-01-03T01:36:41.827Z,9.20
2023-01-03T01:37:44.591Z,9.20
2023-01-03T01:38:47.844Z,9.10
2023-01-03T01:39:49.269Z,9.10
2023-01-03T01:40:50.717Z,9.20
2023-01-03T01:42:28.664Z,9.30
2023-01-03T01:43:50.724Z,9.30
2023-01-03T01:45:04.506Z,9.30
2023-01-03T01:46:27.996Z,9.30
2023-01-03T01:47:41.389Z,9.30
2023-01-03T01:48:43.060Z,9.20
2023-01-03T01:49:47.009Z,9.20
2023-01-03T01:50:54.932Z,9.20
2023-01-03T01:51:56.650Z,9.20
2023-01-03T01:53:05.380Z,9.20
2023-01-03T01:54:08.044Z,9.10
2023-01-03T01:55:16.202Z,9.10
2023-01-03T01:56:28.145Z,9.10
2023-01-03T01:57:30.162Z,9.10
2023-01-03T01:58:41.156Z,9.10
2023-01-03T01:59:43.333Z,9.10
2023-01-03T02:00:45.338Z,9.00
2023-01-03T02:01:49.420Z,9.00
2023-01-03T02:02:53.464Z,9.00
2023-01-03T02:04:03.055Z,9.00
2023-01-03T02:05:06.921Z,9.10
2023-01-03T02:06:12.197Z,9.10
2023-01-03T02:07:13.786Z,9.10
2023-01-03T02:08:15.857Z,9.10
2023-01-03T02:09:17.368Z,9.00
2023-01-03T02:10:38.449Z,9.00
2023-01-03T02:12:17.467Z,9.00
2023-01-03T02:13:30.120Z,9.00
2023-01-03T02:14:50.696Z,9.00
2023-01-03T02:16:13.235Z,9.00
2023-01-03T02:17:20.530Z,9.00
2023-01-03T02:18:35.666Z,9.00
2023-01-03T02:20:15.946Z,9.00
2023-01-03T02:21:47.363Z,9.10
2023-01-03T02:22:57.715Z,9.10
2023-01-03T02:24:20.027Z,9.00
2023-01-03T02:25:41.936Z,9.00
2023-01-03T02:26:55.513Z,9.00
2023-01-03T02:28:24.755Z,9.00
2023-01-03T02:30:04.416Z,9.00
2023-01-03T02:31:15.267Z,8.90
2023-01-03T02:32:22.859Z,9.00
2023-01-03T02:33:48.858Z,8.90
2023-01-03T02:35:06.113Z,8.90
2023-01-03T02:36:21.979Z,9.00
2023-01-03T02:37:53.510Z,8.90
2023-01-03T02:39:07.252Z,8.90
2023-01-03T02:40:23.328Z,8.90
2023-01-03T02:41:47.021Z,9.00
2023-01-03T02:43:05.607Z,9.00
2023-01-03T02:44:25.762Z,8.90
2023-01-03T02:45:33.257Z,8.90
2023-01-03T02:46:51.442Z,8.90
2023-01-03T02:48:14.553Z,8.90
2023-01-03T02:49:30.293Z,9.00
2023-01-03T02:50:38.963Z,9.00
2023-01-03T02:51:45.721Z,8.90
2023-01-03T02:52:50.723Z,8.90
2023-01-03T02:53:52.429Z,8.90
2023-01-03T02:55:06.559Z,8.90
2023-01-03T02:56:12.614Z,8.90
2023-01-03T02:57:18.835Z,8.90
2023-01-03T02:58:26.263Z,8.90
2023-01-03T02:59:47.997Z,8.90
2023-01-03T03:00:55.319Z,8.80
2023-01-03T03:01:58.003Z,8.80
2023-01-03T03:03:06.773Z,8.80
2023-01-03T03:04:08.911Z,8.90
2023-01-03T03:05:14.535Z,8.80
2023-01-03T03:06:36.602Z,8.90
2023-01-03T03:07:40.861Z,8.90
2023-01-03T03:08:46.120Z,8.90
2023-01-03T03:10:06.290Z,8.80
2023-01-03T03:11:26.438Z,8.80
2023-01-03T03:12:49.139Z,8.80
2023-01-03T03:14:00.101Z,8.80
2023-01-03T03:15:03.583Z,8.90
2023-01-03T03:16:17.909Z,8.90
2023-01-03T03:17:28.142Z,8.90
2023-01-03T03:18:44.215Z,8.90
2023-01-03T03:20:06.825Z,8.80
2023-01-03T03:21:29.510Z,8.80
2023-01-03T03:23:05.335Z,8.80
2023-01-03T03:24:35.615Z,8.70
2023-01-03T03:25:45.712Z,8.70
2023-01-03T03:26:49.630Z,8.70
2023-01-03T03:28:13.933Z,8.70
2023-01-03T03:29:18.156Z,8.70
2023-01-03T03:30:22.103Z,8.70
2023-01-03T03:31:35.237Z,8.70
2023-01-03T03:32:39.912Z,8.70
2023-01-03T03:34:07.311Z,8.70
2023-01-03T03:35:12.610Z,8.70
2023-01-03T03:36:44.973Z,8.70
2023-01-03T03:37:49.976Z,8.70
2023-01-03T03:38:51.920Z,8.70
2023-01-03T03:40:12.122Z,8.70
2023-01-03T03:41:35.649Z,8.70
2023-01-03T03:43:01.784Z,8.70
2023-01-03T03:44:50.072Z,8.70
2023-01-03T03:46:09.643Z,8.90
2023-01-03T03:47:37.232Z,8.90
2023-01-03T03:49:07.406Z,8.90
2023-01-03T03:50:23.778Z,8.90
2023-01-03T03:51:31.246Z,8.80
2023-01-03T03:52:35.231Z,8.80
2023-01-03T03:53:39.227Z,8.80
2023-01-03T03:54:45.001Z,8.80
2023-01-03T03:55:52.104Z,8.80
2023-01-03T03:57:02.810Z,8.80
2023-01-03T03:58:18.159Z,8.80
2023-01-03T03:59:22.551Z,8.70
2023-01-03T04:00:29.208Z,8.70
2023-01-03T04:01:31.721Z,8.80
2023-01-03T04:02:34.851Z,8.80
2023-01-03T04:03:39.300Z,8.80
2023-01-03T04:04:44.497Z,8.80
2023-01-03T04:05:57.166Z,8.90
2023-01-03T04:06:58.776Z,9.00
2023-01-03T04:08:00.605Z,8.90
2023-01-03T04:09:02.226Z,8.90
2023-01-03T04:10:05.157Z,8.90
2023-01-03T04:11:07.060Z,8.90
2023-01-03T04:12:08.721Z,8.80
2023-01-03T04:13:10.157Z,8.80
2023-01-03T04:14:12.087Z,8.90
2023-01-03T04:15:14.180Z,8.90
2023-01-03T04:16:15.884Z,8.90
2023-01-03T04:17:17.451Z,8.90
2023-01-03T04:18:18.881Z,8.90
2023-01-03T04:19:20.306Z,8.80
2023-01-03T04:20:21.802Z,8.80
2023-01-03T04:21:23.608Z,8.80
2023-01-03T04:22:25.043Z,8.80
2023-01-03T04:23:26.490Z,8.90
2023-01-03T04:24:27.907Z,8.80
2023-01-03T04:25:29.542Z,8.80
2023-01-03T04:26:31.670Z,8.80
2023-01-03T04:27:33.290Z,8.80
2023-01-03T04:28:34.857Z,8.80
2023-01-03T04:29:39.447Z,8.80
2023-01-03T04:30:41.485Z,8.80
2023-01-03T04:31:43.129Z,8.80
2023-01-03T04:32:44.578Z,8.80
2023-01-03T04:33:46.009Z,8.80
2023-01-03T04:34:47.481Z,8.80
2023-01-03T04:35:48.866Z,8.80
2023-01-03T04:36:50.363Z,8.80
2023-01-03T04:37:52.054Z,8.80
2023-01-03T04:38:53.489Z,8.80
2023-01-03T04:39:54.962Z,8.80
2023-01-03T04:40:56.487Z,8.80
2023-01-03T04:41:57.983Z,8.80
2023-01-03T04:43:18.527Z,8.80
2023-01-03T04:44:19.967Z,8.80
2023-01-03T04:45:21.449Z,8.80
2023-01-03T04:46:23.894Z,8.80
2023-01-03T04:47:25.671Z,8.80
2023-01-03T04:48:27.427Z,8.80
2023-01-03T04:49:29.071Z,8.80
2023-01-03T04:50:30.888Z,8.80
2023-01-03T04:51:32.962Z,8.80
2023-01-03T04:52:34.358Z,8.80
2023-01-03T04:53:35.785Z,8.80
2023-01-03T04:54:39.042Z,8.80
2023-01-03T04:55:47.459Z,8.90
2023-01-03T04:56:48.885Z,8.90
2023-01-03T04:57:50.523Z,8.80
2023-01-03T04:58:51.989Z,8.80
2023-01-03T04:59:53.383Z,8.80
2023-01-03T05:01:02.127Z,8.70
2023-01-03T05:02:04.074Z,8.70
2023-01-03T05:03:06.628Z,8.70
2023-01-03T05:04:08.867Z,8.70
2023-01-03T05:05:10.803Z,8.70
2023-01-03T05:06:13.268Z,8.70
2023-01-03T05:07:14.850Z,8.70
2023-01-03T05:08:16.435Z,8.70
2023-01-03T05:09:17.859Z,8.70
2023-01-03T05:10:19.578Z,8.70
2023-01-03T05:11:21.382Z,8.60
2023-01-03T05:12:22.816Z,8.70
2023-01-03T05:13:24.439Z,8.70
2023-01-03T05:14:26.075Z,8.80
2023-01-03T05:15:32.652Z,8.70
2023-01-03T05:16:34.179Z,8.70
2023-01-03T05:17:35.617Z,8.80
2023-01-03T05:18:37.898Z,8.70
2023-01-03T05:19:59.527Z,8.70
2023-01-03T05:21:26.879Z,8.70
2023-01-03T05:22:47.125Z,8.70
2023-01-03T05:24:07.273Z,8.70
2023-01-03T05:25:28.662Z,8.60
2023-01-03T05:26:30.051Z,8.60
2023-01-03T05:27:31.718Z,8.60
2023-01-03T05:28:33.847Z,8.60
2023-01-03T05:29:36.504Z,8.60
2023-01-03T05:30:38.288Z,8.50
2023-01-03T05:31:40.407Z,8.50
2023-01-03T05:32:42.179Z,8.50
2023-01-03T05:33:43.769Z,8.50
2023-01-03T05:34:45.196Z,8.60
2023-01-03T05:35:47.673Z,8.60
2023-01-03T05:36:49.363Z,8.60
2023-01-03T05:37:54.293Z,8.50
2023-01-03T05:38:55.778Z,8.50
2023-01-03T05:39:57.278Z,8.50
2023-01-03T05:40:58.806Z,8.40
2023-01-03T05:42:00.266Z,8.50
2023-01-03T05:43:01.721Z,8.40
2023-01-03T05:44:03.601Z,8.50
2023-01-03T05:45:05.648Z,8.40
2023-01-03T05:46:07.162Z,8.40
2023-01-03T05:47:08.665Z,8.40
2023-01-03T05:48:10.296Z,8.40
2023-01-03T05:49:11.915Z,8.30
2023-01-03T05:50:13.378Z,8.40
2023-01-03T05:51:14.991Z,8.30
2023-01-03T05:52:16.640Z,8.30
2023-01-03T05:53:18.393Z,8.20
2023-01-03T05:54:21.155Z,8.20
2023-01-03T05:55:23.697Z,8.30
2023-01-03T05:56:25.628Z,8.30
2023-01-03T05:57:31.824Z,8.20
2023-01-03T05:58:36.634Z,8.20
2023-01-03T05:59:38.590Z,8.20
2023-01-03T06:00:40.563Z,8.10
2023-01-03T06:01:42.107Z,8.20
2023-01-03T06:02:43.874Z,8.10
2023-01-03T06:03:47.301Z,8.10
2023-01-03T06:04:49.077Z,8.10
2023-01-03T06:05:50.749Z,8.00
2023-01-03T06:06:52.815Z,8.00
2023-01-03T06:07:54.240Z,8.00
2023-01-03T06:08:55.984Z,7.90
2023-01-03T06:09:57.410Z,7.90
2023-01-03T06:10:58.901Z,7.90
2023-01-03T06:12:00.896Z,7.80
2023-01-03T06:13:02.646Z,7.90
2023-01-03T06:14:04.067Z,7.90
2023-01-03T06:15:06.620Z,8.00
2023-01-03T06:16:33.115Z,7.90
2023-01-03T06:17:53.215Z,7.90
2023-01-03T06:18:55.011Z,7.80
2023-01-03T06:19:57.080Z,7.80
2023-01-03T06:20:58.494Z,7.90
2023-01-03T06:21:59.911Z,7.80
2023-01-03T06:23:01.361Z,7.90
2023-01-03T06:24:03.747Z,7.80
2023-01-03T06:25:05.597Z,7.80
2023-01-03T06:26:07.229Z,7.70
2023-01-03T06:27:08.661Z,7.70
2023-01-03T06:28:10.086Z,7.70
2023-01-03T06:29:11.513Z,7.70
2023-01-03T06:30:13.386Z,7.70
2023-01-03T06:31:15.446Z,7.60
2023-01-03T06:32:17.034Z,7.60
2023-01-03T06:33:18.450Z,7.60
2023-01-03T06:34:19.809Z,7.60
2023-01-03T06:35:21.321Z,7.60
2023-01-03T06:36:24.208Z,7.50
2023-01-03T06:37:25.586Z,7.50
2023-01-03T06:38:28.877Z,7.50
2023-01-03T06:39:30.733Z,7.50
2023-01-03T06:40:39.310Z,7.60
2023-01-03T06:41:43.870Z,7.70
2023-01-03T06:42:45.428Z,7.70
2023-01-03T06:43:47.044Z,7.60
2023-01-03T06:45:08.703Z,7.60
2023-01-03T06:46:30.121Z,7.60
2023-01-03T06:47:50.738Z,7.60
2023-01-03T06:49:10.793Z,7.60
2023-01-03T06:50:31.261Z,7.50
2023-01-03T06:51:51.951Z,7.60
2023-01-03T06:53:12.219Z,7.50
2023-01-03T06:54:18.971Z,7.50
2023-01-03T06:55:20.481Z,7.50
2023-01-03T06:56:23.148Z,7.60
2023-01-03T06:57:27.314Z,7.50
2023-01-03T06:58:29.484Z,7.50
2023-01-03T06:59:30.954Z,7.50
2023-01-03T07:00:32.687Z,7.50
2023-01-03T07:01:34.418Z,7.50
2023-01-03T07:02:36.066Z,7.40
2023-01-03T07:03:37.921Z,7.40
2023-01-03T07:04:39.471Z,7.50
2023-01-03T07:05:41.194Z,7.50
2023-01-03T07:06:43.029Z,7.50
2023-01-03T07:07:44.881Z,7.50
2023-01-03T07:08:48.644Z,7.40
2023-01-03T07:09:50.212Z,7.40
2023-01-03T07:10:51.673Z,7.40
2023-01-03T07:11:53.307Z,7.40
2023-01-03T07:13:13.607Z,7.40
2023-01-03T07:14:15.142Z,7.40
2023-01-03T07:15:17.209Z,7.40
2023-01-03T07:16:20.502Z,7.40
2023-01-03T07:17:21.896Z,7.40
2023-01-03T07:18:23.550Z,7.30
2023-01-03T07:19:25.823Z,7.30
2023-01-03T07:20:27.404Z,7.30
2023-01-03T07:21:30.705Z,7.30
2023-01-03T07:22:32.225Z,7.30
2023-01-03T07:23:34.037Z,7.30
2023-01-03T07:24:35.742Z,7.20
2023-01-03T07:25:41.828Z,7.30
2023-01-03T07:26:43.436Z,7.30
2023-01-03T07:27:45.667Z,7.30
2023-01-03T07:28:48.269Z,7.40
2023-01-03T07:29:49.895Z,7.30
2023-01-03T07:30:51.674Z,7.40
2023-01-03T07:31:53.122Z,7.40
2023-01-03T07:32:56.829Z,7.30
2023-01-03T07:33:58.787Z,7.30
2023-01-03T07:35:00.770Z,7.30
2023-01-03T07:36:11.244Z,7.30
2023-01-03T07:37:13.242Z,7.30
2023-01-03T07:38:15.005Z,7.30
2023-01-03T07:39:16.530Z,7.20
2023-01-03T07:40:18.130Z,7.20
2023-01-03T07:41:20.220Z,7.20
2023-01-03T07:42:40.379Z,7.10
2023-01-03T07:43:48.154Z,7.20
2023-01-03T07:44:49.551Z,7.20
2023-01-03T07:45:51.318Z,7.20
2023-01-03T07:46:53.091Z,7.30
2023-01-03T07:47:54.576Z,7.30
2023-01-03T07:49:06.487Z,7.30
2023-01-03T07:50:11.305Z,7.40
2023-01-03T07:51:15.276Z,7.40
2023-01-03T07:52:16.828Z,7.30
2023-01-03T07:53:19.492Z,7.30
2023-01-03T07:54:21.267Z,7.30
2023-01-03T07:55:22.679Z,7.40
2023-01-03T07:56:25.545Z,7.40
2023-01-03T07:57:27.934Z,7.40
2023-01-03T07:58:29.387Z,7.40
2023-01-03T07:59:31.006Z,7.40
2023-01-03T08:00:32.438Z,7.40
2023-01-03T08:01:34.249Z,7.30
2023-01-03T08:02:36.388Z,7.30
2023-01-03T08:03:39.351Z,7.30
2023-01-03T08:04:40.846Z,7.40
2023-01-03T08:05:42.658Z,7.40
2023-01-03T08:06:44.149Z,7.40
2023-01-03T08:07:48.609Z,7.40
2023-01-03T08:09:11.182Z,7.40
2023-01-03T08:10:42.009Z,7.40
2023-01-03T08:12:02.117Z,7.40
2023-01-03T08:13:19.393Z,7.40
2023-01-03T08:14:25.696Z,7.40
2023-01-03T08:15:27.824Z,7.40
2023-01-03T08:16:29.538Z,7.50
2023-01-03T08:17:31.307Z,7.50
2023-01-03T08:18:32.878Z,7.50
2023-01-03T08:19:37.712Z,7.50
2023-01-03T08:20:42.175Z,7.60
2023-01-03T08:21:43.861Z,7.50
2023-01-03T08:22:45.397Z,7.50
2023-01-03T08:23:48.940Z,7.50
2023-01-03T08:24:50.592Z,7.50
2023-01-03T08:25:59.561Z,7.50
2023-01-03T08:27:01.046Z,7.50
2023-01-03T08:28:03.391Z,7.60
2023-01-03T08:29:04.866Z,7.60
2023-01-03T08:30:06.987Z,7.60
2023-01-03T08:31:30.781Z,7.60
2023-01-03T08:32:33.938Z,7.60
2023-01-03T08:33:41.579Z,7.60
2023-01-03T08:34:44.392Z,7.70
2023-01-03T08:35:54.814Z,7.70
2023-01-03T08:37:02.366Z,7.70
2023-01-03T08:38:07.043Z,7.80
2023-01-03T08:39:16.178Z,7.80
2023-01-03T08:40:18.362Z,7.80
2023-01-03T08:41:24.543Z,7.80
2023-01-03T08:42:26.868Z,7.90
2023-01-03T08:43:33.044Z,7.80
2023-01-03T08:44:35.423Z,7.90
2023-01-03T08:45:38.779Z,7.80
2023-01-03T08:46:45.695Z,7.90
2023-01-03T08:47:47.555Z,7.90
2023-01-03T08:48:49.349Z,7.90
2023-01-03T08:49:50.845Z,7.90
2023-01-03T08:50:52.476Z,7.90
2023-01-03T08:51:53.928Z,7.90
2023-01-03T08:52:55.620Z,8.00
2023-01-03T08:53:57.124Z,8.00
2023-01-03T08:54:58.873Z,8.00
2023-01-03T08:56:00.448Z,8.00
2023-01-03T08:57:01.996Z,8.10
2023-01-03T08:58:03.479Z,8.10
2023-01-03T08:59:04.911Z,8.10
2023-01-03T09:00:07.196Z,8.10
2023-01-03T09:01:11.375Z,8.20
2023-01-03T09:02:13.519Z,8.20
2023-01-03T09:03:15.559Z,8.30
2023-01-03T09:04:17.068Z,8.30
2023-01-03T09:05:18.520Z,8.40
2023-01-03T09:06:20.047Z,8.40
2023-01-03T09:07:21.773Z,8.40
2023-01-03T09:08:23.194Z,8.50
2023-01-03T09:09:24.793Z,8.50
2023-01-03T09:10:26.542Z,8.50
2023-01-03T09:11:27.968Z,8.60
2023-01-03T09:12:29.457Z,8.60
2023-01-03T09:13:30.891Z,8.60
2023-01-03T09:14:32.541Z,8.60
2023-01-03T09:15:34.306Z,8.60
2023-01-03T09:16:35.974Z,8.60
2023-01-03T09:17:37.496Z,8.70
2023-01-03T09:18:40.648Z,8.70
2023-01-03T09:19:42.907Z,8.80
2023-01-03T09:20:44.396Z,8.80
2023-01-03T09:21:46.015Z,8.90
2023-01-03T09:22:48.157Z,8.90
2023-01-03T09:23:50.078Z,8.90
2023-01-03T09:24:51.884Z,8.90
2023-01-03T09:25:53.358Z,8.90
2023-01-03T09:26:55.302Z,8.90
2023-01-03T09:27:57.064Z,9.00
2023-01-03T09:28:58.514Z,9.00
2023-01-03T09:30:00.237Z,9.00
2023-01-03T09:31:02.200Z,9.00
2023-01-03T09:32:03.957Z,9.00
2023-01-03T09:33:05.509Z,9.00
2023-01-03T09:34:07.335Z,9.00
2023-01-03T09:35:09.862Z,9.00
2023-01-03T09:36:11.364Z,9.10
2023-01-03T09:37:13.065Z,9.10
2023-01-03T09:38:14.491Z,9.10
2023-01-03T09:39:15.962Z,9.10
2023-01-03T09:40:18.152Z,9.10
2023-01-03T09:41:24.148Z,9.10
2023-01-03T09:42:47.428Z,9.10
2023-01-03T09:43:52.430Z,9.10
2023-01-03T09:44:54.358Z,9.10
2023-01-03T09:45:58.586Z,9.20
2023-01-03T09:47:00.380Z,9.20
2023-01-03T09:48:03.879Z,9.20
2023-01-03T09:49:07.286Z,9.20
2023-01-03T09:50:39.395Z,9.20
2023-01-03T09:52:04.638Z,9.20
2023-01-03T09:53:25.417Z,9.20
2023-01-03T09:54:51.586Z,9.20
2023-01-03T09:56:25.130Z,9.20
2023-01-03T09:57:54.328Z,9.20
2023-01-03T09:59:19.338Z,9.30
2023-01-03T10:00:48.756Z,9.30
2023-01-03T10:02:30.819Z,9.30
2023-01-03T10:03:58.856Z,9.30
2023-01-03T10:05:19.426Z,9.40
2023-01-03T10:06:41.119Z,9.40
2023-01-03T10:07:55.014Z,9.30
2023-01-03T10:09:21.142Z,9.30
2023-01-03T10:10:39.283Z,9.30
2023-01-03T10:12:22.003Z,9.30
2023-01-03T10:14:00.830Z,9.20
2023-01-03T10:15:19.847Z,9.20
2023-01-03T10:16:42.113Z,9.10
2023-01-03T10:17:43.662Z,9.10
2023-01-03T10:19:05.003Z,9.10
2023-01-03T10:20:33.630Z,9.00
2023-01-03T10:22:11.844Z,9.00
2023-01-03T10:23:13.667Z,9.00
2023-01-03T10:24:30.271Z,9.00
2023-01-03T10:25:32.406Z,9.00
2023-01-03T10:26:34.013Z,9.00
2023-01-03T10:27:46.919Z,9.00
2023-01-03T10:28:48.696Z,8.90
2023-01-03T10:29:54.098Z,8.90
2023-01-03T10:31:10.600Z,8.90
2023-01-03T10:32:36.327Z,9.00
2023-01-03T10:33:45.969Z,9.00
2023-01-03T10:35:04.325Z,8.90
2023-01-03T10:36:08.251Z,9.00
2023-01-03T10:37:17.649Z,9.00
2023-01-03T10:38:22.221Z,9.00
2023-01-03T10:39:31.777Z,9.10
2023-01-03T10:40:44.513Z,9.10
2023-01-03T10:41:48.311Z,9.10
2023-01-03T10:42:50.414Z,9.10
2023-01-03T10:44:02.903Z,9.20
2023-01-03T10:45:14.531Z,9.20
2023-01-03T10:46:22.824Z,9.20
2023-01-03T10:47:26.135Z,9.20
2023-01-03T10:49:16.858Z,9.30
2023-01-03T10:50:06.267Z,9.30
2023-01-03T10:51:29.038Z,9.40
2023-01-03T10:52:33.481Z,9.50
2023-01-03T10:53:41.243Z,9.50
2023-01-03T10:54:53.355Z,9.60
2023-01-03T10:55:58.631Z,9.70
2023-01-03T10:57:00.114Z,9.70
2023-01-03T10:58:04.121Z,9.70
2023-01-03T10:59:11.383Z,9.70
2023-01-03T11:00:36.189Z,9.80
2023-01-03T11:01:38.668Z,9.80
2023-01-03T11:02:44.655Z,9.80
2023-01-03T11:04:12.862Z,9.90
2023-01-03T11:05:23.712Z,9.80
2023-01-03T11:06:25.215Z,9.70
2023-01-03T11:07:26.675Z,9.60
2023-01-03T11:08:37.417Z,9.70
2023-01-03T11:09:50.391Z,9.70
2023-01-03T11:10:58.428Z,9.70
2023-01-03T11:12:10.614Z,9.70
2023-01-03T11:13:34.284Z,9.70
2023-01-03T11:14:36.039Z,9.70
2023-01-03T11:15:39.974Z,9.60
2023-01-03T11:16:41.854Z,9.60
2023-01-03T11:18:00.701Z,9.60
2023-01-03T11:19:06.423Z,9.50
2023-01-03T11:20:20.316Z,9.50
2023-01-03T11:21:46.883Z,9.40
2023-01-03T11:23:00.829Z,9.40
2023-01-03T11:24:07.748Z,9.30
2023-01-03T11:25:28.035Z,9.20
2023-01-03T11:26:44.593Z,9.20
2023-01-03T11:28:03.810Z,9.20
2023-01-03T11:29:24.152Z,9.10
2023-01-03T11:30:35.372Z,9.00
2023-01-03T11:31:42.479Z,9.00
2023-01-03T11:33:00.149Z,9.00
2023-01-03T11:34:20.419Z,9.00
2023-01-03T11:35:48.021Z,9.00
2023-01-03T11:36:58.604Z,9.00
2023-01-03T11:38:06.160Z,9.00
2023-01-03T11:39:26.406Z,9.00
2023-01-03T11:40:51.562Z,9.00
2023-01-03T11:42:17.587Z,9.00
2023-01-03T11:43:50.423Z,9.00
2023-01-03T11:44:54.325Z,9.00
2023-01-03T11:46:01.833Z,9.00
2023-01-03T11:47:37.217Z,9.00
2023-01-03T11:48:52.722Z,8.90
2023-01-03T11:50:12.041Z,8.90
2023-01-03T11:51:34.435Z,8.90
2023-01-03T11:52:53.729Z,8.90
2023-01-03T11:54:01.456Z,9.00
2023-01-03T11:55:30.021Z,9.00
2023-01-03T11:56:37.134Z,9.00
2023-01-03T11:57:44.283Z,9.00
2023-01-03T11:59:02.318Z,9.00
2023-01-03T12:00:22.639Z,9.00
2023-01-03T12:01:42.747Z,9.00
2023-01-03T12:03:10.163Z,9.00
2023-01-03T12:04:44.885Z,9.00
2023-01-03T12:06:00.146Z,9.10
2023-01-03T12:07:46.866Z,9.10
2023-01-03T12:08:43.311Z,9.10
2023-01-03T12:09:55.996Z,9.10
2023-01-03T12:11:22.212Z,9.10
2023-01-03T12:12:23.654Z,9.10
2023-01-03T12:13:34.077Z,9.10
2023-01-03T12:14:51.760Z,9.20
2023-01-03T12:16:14.792Z,9.20
2023-01-03T12:17:25.364Z,9.20
2023-01-03T12:18:39.209Z,9.20
2023-01-03T12:19:50.982Z,9.30
2023-01-03T12:20:58.781Z,9.40
2023-01-03T12:22:37.883Z,9.60
2023-01-03T12:23:47.480Z,9.60
2023-01-03T12:25:02.669Z,9.60
2023-01-03T12:26:14.634Z,9.60
2023-01-03T12:27:23.615Z,9.60
2023-01-03T12:28:28.293Z,9.60
2023-01-03T12:29:49.294Z,9.50
2023-01-03T12:31:32.974Z,9.40
2023-01-03T12:32:50.568Z,9.30
2023-01-03T12:34:19.754Z,9.30
2023-01-03T12:35:28.240Z,9.30
2023-01-03T12:36:42.176Z,9.20
2023-01-03T12:37:46.305Z,9.20
2023-01-03T12:39:19.350Z,9.20
2023-01-03T12:40:28.751Z,9.30
2023-01-03T12:42:13.242Z,9.30
2023-01-03T12:43:20.436Z,9.30
2023-01-03T12:44:29.203Z,9.30
2023-01-03T12:45:51.779Z,9.20
2023-01-03T12:46:56.227Z,9.20
2023-01-03T12:48:15.589Z,9.20
2023-01-03T12:49:37.982Z,9.20
2023-01-03T12:50:50.642Z,9.20
2023-01-03T12:51:52.446Z,9.30
2023-01-03T12:53:13.584Z,9.30
2023-01-03T12:54:26.710Z,9.30
2023-01-03T12:55:55.183Z,9.20
2023-01-03T12:57:14.405Z,9.20
2023-01-03T12:58:42.359Z,9.30
2023-01-03T13:00:13.931Z,9.30
2023-01-03T13:01:26.961Z,9.30
2023-01-03T13:03:00.404Z,9.20
2023-01-03T13:04:23.065Z,9.20
2023-01-03T13:05:34.503Z,9.30
2023-01-03T13:06:40.058Z,9.20
2023-01-03T13:07:47.994Z,9.30
2023-01-03T13:08:57.634Z,9.30
2023-01-03T13:10:15.044Z,9.40
2023-01-03T13:11:41.902Z,9.30
2023-01-03T13:12:49.465Z,9.30
2023-01-03T13:14:03.039Z,9.30
2023-01-03T13:15:37.858Z,9.20
2023-01-03T13:16:44.120Z,9.20
2023-01-03T13:17:49.438Z,9.10
2023-01-03T13:18:50.998Z,9.10
2023-01-03T13:19:58.443Z,9.00
2023-01-03T13:21:00.037Z,9.00
2023-01-03T13:22:19.581Z,9.10
2023-01-03T13:23:41.888Z,9.10
2023-01-03T13:24:49.428Z,9.00
2023-01-03T13:26:06.049Z,8.90
2023-01-03T13:27:16.086Z,8.90
2023-01-03T13:28:20.278Z,8.80
2023-01-03T13:29:34.220Z,8.80
2023-01-03T13:30:38.511Z,8.80
2023-01-03T13:31:40.781Z,8.80
2023-01-03T13:32:54.208Z,8.80
2023-01-03T13:33:57.218Z,8.80
2023-01-03T13:34:58.647Z,8.70
2023-01-03T13:36:01.342Z,8.70
2023-01-03T13:37:05.953Z,8.60
2023-01-03T13:38:24.519Z,8.60
2023-01-03T13:39:44.243Z,8.60
2023-01-03T13:41:16.675Z,8.60
2023-01-03T13:42:35.248Z,8.60
2023-01-03T13:43:40.241Z,8.50
2023-01-03T13:44:42.341Z,8.50
2023-01-03T13:45:43.953Z,8.50
2023-01-03T13:46:46.847Z,8.40
2023-01-03T13:47:53.875Z,8.40
2023-01-03T13:48:56.934Z,8.40
2023-01-03T13:49:58.793Z,8.30
2023-01-03T13:51:33.725Z,8.40
2023-01-03T13:52:57.274Z,8.30
2023-01-03T13:54:03.657Z,8.20
2023-01-03T13:55:05.676Z,8.20
2023-01-03T13:56:15.900Z,8.10
2023-01-03T13:57:37.766Z,8.20
2023-01-03T13:58:48.955Z,8.20
2023-01-03T13:59:51.154Z,8.20
2023-01-03T14:01:00.434Z,8.20
2023-01-03T14:02:12.877Z,8.20
2023-01-03T14:03:54.157Z,8.20
2023-01-03T14:05:20.892Z,8.20
2023-01-03T14:06:25.346Z,8.20
2023-01-03T14:07:58.723Z,8.10
2023-01-03T14:09:16.009Z,8.10
2023-01-03T14:10:47.490Z,8.00
2023-01-03T14:12:19.311Z,8.10
2023-01-03T14:13:41.841Z,8.00
2023-01-03T14:14:51.332Z,7.90
2023-01-03T14:16:13.287Z,8.00
2023-01-03T14:17:18.985Z,7.90
2023-01-03T14:18:29.157Z,7.90
2023-01-03T14:19:37.449Z,7.90
2023-01-03T14:20:43.538Z,7.90
2023-01-03T14:21:55.316Z,8.00
2023-01-03T14:23:11.618Z,7.90
2023-01-03T14:24:28.583Z,7.90
2023-01-03T14:25:42.133Z,7.80
2023-01-03T14:26:43.555Z,7.80
2023-01-03T14:27:45.298Z,7.80
2023-01-03T14:28:52.814Z,7.90
2023-01-03T14:29:55.778Z,7.90
2023-01-03T14:31:05.984Z,7.80
2023-01-03T14:32:26.317Z,7.80
2023-01-03T14:33:41.324Z,7.80
2023-01-03T14:34:42.981Z,7.80
2023-01-03T14:35:44.773Z,7.80
2023-01-03T14:36:47.563Z,7.80
2023-01-03T14:37:49.055Z,7.80
2023-01-03T14:39:01.229Z,7.80
2023-01-03T14:40:06.311Z,7.70
2023-01-03T14:41:32.970Z,7.70
2023-01-03T14:42:34.706Z,7.70
2023-01-03T14:43:36.242Z,7.70
2023-01-03T14:44:37.971Z,7.70
2023-01-03T14:45:40.017Z,7.60
2023-01-03T14:49:50.163Z,7.60
2023-01-03T14:50:53.009Z,7.60
2023-01-03T14:52:03.311Z,7.60
2023-01-03T14:53:05.068Z,7.50
2023-01-03T14:54:06.711Z,7.50
2023-01-03T14:55:15.897Z,7.40
2023-01-03T14:56:23.729Z,7.40
2023-01-03T14:57:27.238Z,7.40
2023-01-03T14:58:34.447Z,7.40
2023-01-03T14:59:36.031Z,7.30
2023-01-03T15:00:39.562Z,7.30
2023-01-03T15:01:43.485Z,7.30
2023-01-03T15:02:46.310Z,7.30
2023-01-03T15:03:49.798Z,7.40
2023-01-03T15:04:55.408Z,7.40
2023-01-03T15:06:00.235Z,7.40
2023-01-03T15:07:11.334Z,7.40
2023-01-03T15:08:15.054Z,7.30
2023-01-03T15:09:22.462Z,7.40
2023-01-03T15:10:51.927Z,7.40
2023-01-03T15:11:59.291Z,7.30
2023-01-03T15:13:04.995Z,7.30
2023-01-03T15:14:07.125Z,7.30